KEDW

Edwards AFB Airport

Edwards, California, USA
METAR KEDW 241358Z AUTO 20007KT 10SM CLR 20/09 A2984 RMK AO2 SLP081 T02010087
Observed Flight Rules
Jun-24 @ 13:58 UTC (an hour ago) Visual Flight Rules
Wind Visibility Clouds
200° at 7 knots 10 miles
  • Clear skies
Temperatures Readings
Current 20°C / 68°F
Dewpoint 9°C / 48°F
Humidity 49%
Altimeter 29.84" Hg
Pressure 1008.1 hPa
Elevation 702
METAR KEDW 241358Z AUTO 20007KT 10SM CLR 20/09 A2984 RMK AO2 SLP081 T02010087
Observed Flight Rules
Jun-24 @ 13:58 UTC
(an hour ago)
VFR
Wind Visibility
200° at 7 knots 10 miles
Clouds
  • Clear skies
Temperature Dewpoint
20°C / 68°F 9°C / 48°F
Humidity Altimeter Pressure
49% 29.84" Hg 1008.1 hPa